Station Historical Data
Daily Summary for September 20, 2017 Units:  English    Metric   Both
« Previous Day
Next Day »
Daily Weekly Monthly Yearly Custom
  High: Low: Average:
Temperature: 83.0 °F 59.0 °F 70.6 °F
Dew Point: 68.2 °F 56.7 °F 62.3 °F
Humidity: 93% 50% 77%
Wind Speed: 8.0mph 0.0mph 1.4mph
Wind Gust: 12.0mph - -
Wind- - ENE
Pressure: 30.02 in 29.96 in -
Precipitation: 0.00 in    
Historical Graphs
 
 
Tabular Data for September 20, 2017
Time Temperature Dew Point Pressure Wind Wind Speed Wind Gust Humidity Rainfall Rate (Hourly)
00:04 66.4 °F 62.4 °F 29.97 in Calm     87% 0.00 in
00:09 66.1 °F 62.1 °F 29.97 in Calm     87% 0.00 in
00:14 65.8 °F 61.8 °F 29.97 in Calm     87% 0.00 in
00:19 65.8 °F 62.1 °F 29.97 in Calm     88% 0.00 in
00:24 65.7 °F 62.0 °F 29.97 in Calm     88% 0.00 in
00:29 65.6 °F 61.9 °F 29.97 in Calm     88% 0.00 in
00:34 65.4 °F 61.8 °F 29.96 in Calm     88% 0.00 in
00:39 65.2 °F 61.6 °F 29.97 in Calm     88% 0.00 in
00:44 65.0 °F 61.7 °F 29.97 in Calm     89% 0.00 in
00:49 64.8 °F 61.5 °F 29.97 in Calm     89% 0.00 in
00:54 64.7 °F 61.4 °F 29.97 in Calm     89% 0.00 in
00:59 64.5 °F 61.2 °F 29.97 in Calm     89% 0.00 in
01:04 64.4 °F 61.1 °F 29.97 in Calm     89% 0.00 in
01:09 64.3 °F 61.0 °F 29.97 in Calm     89% 0.00 in
01:14 64.3 °F 61.3 °F 29.97 in Calm     90% 0.00 in
01:19 64.1 °F 61.1 °F 29.97 in Calm     90% 0.00 in
01:24 63.9 °F 60.9 °F 29.98 in Calm     90% 0.00 in
01:29 63.9 °F 60.9 °F 29.98 in Calm     90% 0.00 in
01:34 63.8 °F 60.8 °F 29.98 in Calm     90% 0.00 in
01:39 63.8 °F 60.8 °F 29.97 in Calm     90% 0.00 in
01:44 63.6 °F 60.6 °F 29.98 in Calm     90% 0.00 in
01:49 63.6 °F 60.6 °F 29.97 in Calm     90% 0.00 in
01:54 63.5 °F 60.5 °F 29.97 in Calm     90% 0.00 in
01:59 63.5 °F 60.5 °F 29.97 in Calm     90% 0.00 in
02:04 63.3 °F 60.6 °F 29.97 in Calm     91% 0.00 in
02:09 63.2 °F 60.5 °F 29.98 in Calm     91% 0.00 in
02:14 63.1 °F 60.1 °F 29.98 in Calm     90% 0.00 in
02:19 63.0 °F 60.3 °F 29.98 in Calm     91% 0.00 in
02:24 62.9 °F 60.2 °F 29.98 in Calm     91% 0.00 in
02:29 62.7 °F 60.0 °F 29.98 in Calm     91% 0.00 in
02:34 62.6 °F 59.9 °F 29.98 in Calm     91% 0.00 in
02:39 62.5 °F 59.8 °F 29.97 in Calm     91% 0.00 in
02:44 62.3 °F 59.6 °F 29.97 in Calm     91% 0.00 in
02:49 62.2 °F 59.5 °F 29.97 in Calm     91% 0.00 in
02:54 62.2 °F 59.5 °F 29.98 in Calm     91% 0.00 in
02:59 62.1 °F 59.4 °F 29.97 in Calm     91% 0.00 in
03:04 62.0 °F 59.3 °F 29.97 in Calm     91% 0.00 in
03:09 62.1 °F 59.4 °F 29.97 in Calm     91% 0.00 in
03:14 62.0 °F 59.3 °F 29.97 in Calm     91% 0.00 in
03:19 61.9 °F 59.2 °F 29.97 in Calm     91% 0.00 in
03:24 61.8 °F 59.1 °F 29.97 in Calm     91% 0.00 in
03:29 61.8 °F 59.1 °F 29.97 in Calm     91% 0.00 in
03:34 61.7 °F 59.0 °F 29.97 in Calm     91% 0.00 in
03:39 61.5 °F 58.8 °F 29.97 in Calm     91% 0.00 in
03:44 61.4 °F 58.7 °F 29.97 in Calm     91% 0.00 in
03:49 61.4 °F 58.7 °F 29.97 in Calm     91% 0.00 in
03:54 61.4 °F 58.7 °F 29.97 in Calm     91% 0.00 in
03:59 61.3 °F 58.7 °F 29.97 in Calm     91% 0.00 in
04:04 61.3 °F 58.7 °F 29.97 in Calm     91% 0.00 in
04:09 61.1 °F 58.5 °F 29.97 in Calm     91% 0.00 in
04:14 61.0 °F 58.4 °F 29.97 in Calm     91% 0.00 in
04:19 61.0 °F 58.4 °F 29.97 in Calm     91% 0.00 in
04:24 60.9 °F 58.3 °F 29.97 in Calm     91% 0.00 in
04:29 60.9 °F 58.3 °F 29.97 in Calm     91% 0.00 in
04:34 60.8 °F 58.5 °F 29.97 in Calm     92% 0.00 in
04:39 60.8 °F 58.5 °F 29.97 in Calm     92% 0.00 in
04:44 60.7 °F 58.4 °F 29.97 in Calm     92% 0.00 in
04:49 60.6 °F 58.0 °F 29.97 in Calm     91% 0.00 in
04:54 60.5 °F 57.9 °F 29.97 in Calm     91% 0.00 in
04:59 60.2 °F 57.6 °F 29.97 in Calm     91% 0.00 in
05:04 60.0 °F 57.4 °F 29.98 in Calm     91% 0.00 in
05:09 59.8 °F 57.2 °F 29.97 in Calm     91% 0.00 in
05:14 59.7 °F 57.1 °F 29.97 in Calm     91% 0.00 in
05:19 59.7 °F 57.4 °F 29.97 in Calm     92% 0.00 in
05:24 59.5 °F 57.2 °F 29.98 in Calm     92% 0.00 in
05:29 59.4 °F 57.1 °F 29.98 in Calm     92% 0.00 in
05:34 59.3 °F 57.0 °F 29.98 in Calm     92% 0.00 in
05:39 59.3 °F 57.0 °F 29.98 in Calm     92% 0.00 in
05:44 59.3 °F 57.0 °F 29.98 in Calm     92% 0.00 in
05:49 59.4 °F 57.1 °F 29.98 in Calm     92% 0.00 in
05:54 59.2 °F 56.9 °F 29.98 in Calm     92% 0.00 in
05:59 59.4 °F 57.1 °F 29.98 in Calm     92% 0.00 in
06:04 59.5 °F 57.2 °F 29.98 in Calm     92% 0.00 in
06:09 59.4 °F 57.1 °F 29.98 in Calm     92% 0.00 in
06:14 59.2 °F 56.9 °F 29.98 in Calm     92% 0.00 in
06:19 59.1 °F 56.8 °F 29.98 in Calm     92% 0.00 in
06:24 59.2 °F 56.9 °F 29.99 in Calm     92% 0.00 in
06:29 59.3 °F 57.0 °F 29.99 in Calm     92% 0.00 in
06:34 59.2 °F 56.9 °F 29.99 in Calm     92% 0.00 in
06:39 59.0 °F 56.7 °F 29.99 in Calm     92% 0.00 in
06:44 59.2 °F 56.9 °F 29.99 in Calm     92% 0.00 in
06:49 59.6 °F 57.6 °F 29.99 in Calm     93% 0.00 in
06:54 59.7 °F 57.7 °F 30.00 in Calm     93% 0.00 in
06:59 59.7 °F 57.7 °F 30.00 in Calm     93% 0.00 in
07:04 59.9 °F 57.9 °F 30.00 in Calm     93% 0.00 in
07:09 60.0 °F 57.7 °F 30.00 in Calm     92% 0.00 in
07:14 60.0 °F 57.7 °F 30.00 in Calm     92% 0.00 in
07:19 60.2 °F 58.2 °F 30.00 in Calm     93% 0.00 in
07:24 60.3 °F 58.3 °F 30.00 in Calm     93% 0.00 in
07:29 60.5 °F 58.2 °F 30.00 in Calm     92% 0.00 in
07:34 60.6 °F 58.3 °F 30.00 in Calm     92% 0.00 in
07:39 60.8 °F 58.5 °F 30.01 in Calm     92% 0.00 in
07:44 61.0 °F 58.7 °F 30.01 in Calm     92% 0.00 in
07:49 61.3 °F 59.0 °F 30.01 in Calm     92% 0.00 in
07:54 61.5 °F 59.2 °F 30.01 in ENE 2.0 mph 4.0 mph 92% 0.00 in
07:59 61.7 °F 59.0 °F 30.01 in Calm   3.0 mph 91% 0.00 in
08:04 62.0 °F 59.3 °F 30.01 in Calm     91% 0.00 in
08:09 62.3 °F 59.6 °F 30.01 in Calm     91% 0.00 in
08:14 62.5 °F 59.5 °F 30.01 in Calm     90% 0.00 in
08:19 62.9 °F 59.9 °F 30.01 in ENE 2.0 mph 3.0 mph 90% 0.00 in
08:24 63.3 °F 60.0 °F 30.01 in Calm   3.0 mph 89% 0.00 in
08:29 63.9 °F 60.6 °F 30.02 in Calm   3.0 mph 89% 0.00 in
08:34 64.5 °F 60.9 °F 30.02 in Calm   3.0 mph 88% 0.00 in
08:39 65.1 °F 61.1 °F 30.02 in Calm   3.0 mph 87% 0.00 in
08:44 65.5 °F 61.2 °F 30.02 in Calm   2.0 mph 86% 0.00 in
08:49 65.8 °F 61.2 °F 30.01 in Calm     85% 0.00 in
08:54 66.1 °F 61.1 °F 30.02 in Calm     84% 0.00 in
08:59 66.3 °F 61.3 °F 30.02 in Calm     84% 0.00 in
09:04 66.8 °F 61.5 °F 30.02 in Calm     83% 0.00 in
09:09 67.1 °F 61.4 °F 30.02 in Calm     82% 0.00 in
09:14 67.7 °F 61.7 °F 30.02 in Calm     81% 0.00 in
09:19 68.2 °F 62.1 °F 30.02 in NE 3.0 mph 5.0 mph 81% 0.00 in
09:24 68.4 °F 62.0 °F 30.02 in Calm   5.0 mph 80% 0.00 in
09:29 68.8 °F 62.0 °F 30.02 in Calm   4.0 mph 79% 0.00 in
09:34 68.7 °F 61.9 °F 30.02 in East 1.0 mph 5.0 mph 79% 0.00 in
09:39 69.5 °F 62.3 °F 30.02 in ESE 1.0 mph 5.0 mph 78% 0.00 in
09:44 69.9 °F 62.4 °F 30.02 in Calm   1.0 mph 77% 0.00 in
09:54 71.0 °F 63.1 °F 30.02 in Calm   5.0 mph 76% 0.00 in
09:59 71.4 °F 62.7 °F 30.02 in Calm     74% 0.00 in
10:04 71.8 °F 63.1 °F 30.02 in Calm     74% 0.00 in
10:09 72.5 °F 63.7 °F 30.02 in Calm     74% 0.00 in
10:14 72.8 °F 62.8 °F 30.02 in Calm     71% 0.00 in
10:19 73.4 °F 63.8 °F 30.02 in Calm     72% 0.00 in
10:24 73.6 °F 63.2 °F 30.02 in Calm     70% 0.00 in
10:29 74.2 °F 64.2 °F 30.02 in Calm     71% 0.00 in
10:34 74.5 °F 63.2 °F 30.02 in Calm     68% 0.00 in
10:39 74.9 °F 63.6 °F 30.02 in Calm     68% 0.00 in
10:44 75.1 °F 63.8 °F 30.02 in Calm     68% 0.00 in
10:49 75.7 °F 64.4 °F 30.02 in Calm     68% 0.00 in
10:54 76.0 °F 64.7 °F 30.02 in Calm     68% 0.00 in
10:59 76.3 °F 64.1 °F 30.02 in Calm     66% 0.00 in
11:04 76.9 °F 63.8 °F 30.02 in Calm     64% 0.00 in
11:09 77.4 °F 65.6 °F 30.02 in Calm     67% 0.00 in
11:14 77.9 °F 64.7 °F 30.02 in Calm     64% 0.00 in
11:19 78.4 °F 65.2 °F 30.02 in Calm     64% 0.00 in
11:24 78.3 °F 64.7 °F 30.02 in Calm   3.0 mph 63% 0.00 in
11:29 78.4 °F 63.8 °F 30.02 in Calm   3.0 mph 61% 0.00 in
11:34 78.5 °F 65.8 °F 30.02 in NNW 4.0 mph 5.0 mph 65% 0.00 in
11:39 78.5 °F 65.8 °F 30.02 in NNW 2.0 mph 5.0 mph 65% 0.00 in
11:44 78.4 °F 64.3 °F 30.02 in NNE 2.0 mph 5.0 mph 62% 0.00 in
11:49 78.4 °F 63.8 °F 30.02 in NE 2.0 mph 7.0 mph 61% 0.00 in
11:54 78.5 °F 64.4 °F 30.02 in ENE 3.0 mph 7.0 mph 62% 0.00 in
11:59 78.8 °F 64.2 °F 30.02 in ENE 4.0 mph 7.0 mph 61% 0.00 in
12:04 79.0 °F 64.4 °F 30.02 in ENE 3.0 mph 7.0 mph 61% 0.00 in
12:09 78.8 °F 64.2 °F 30.02 in ENE 3.0 mph 7.0 mph 61% 0.00 in
12:14 79.8 °F 65.2 °F 30.02 in NE 2.0 mph 5.0 mph 61% 0.00 in
12:19 79.4 °F 64.8 °F 30.02 in NE 3.0 mph 6.0 mph 61% 0.00 in
12:24 80.3 °F 66.1 °F 30.02 in NE 2.0 mph 6.0 mph 62% 0.00 in
12:29 79.6 °F 63.5 °F 30.02 in NE 3.0 mph 10.0 mph 58% 0.00 in
12:34 79.6 °F 63.5 °F 30.01 in ENE 4.0 mph 10.0 mph 58% 0.00 in
12:39 79.4 °F 63.8 °F 30.01 in ENE 3.0 mph 8.0 mph 59% 0.00 in
12:44 79.8 °F 64.7 °F 30.01 in NE 3.0 mph 8.0 mph 60% 0.00 in
12:49 80.3 °F 65.6 °F 30.01 in NE 4.0 mph 4.0 mph 61% 0.00 in
12:54 80.4 °F 64.3 °F 30.01 in East 5.0 mph 7.0 mph 58% 0.00 in
12:59 80.1 °F 63.5 °F 30.01 in NE 2.0 mph 9.0 mph 57% 0.00 in
13:04 80.0 °F 63.9 °F 30.01 in Calm   4.0 mph 58% 0.00 in
13:09 80.7 °F 65.0 °F 30.01 in ESE 1.0 mph 4.0 mph 59% 0.00 in
13:14 81.1 °F 62.3 °F 30.01 in ENE 2.0 mph 7.0 mph 53% 0.00 in
13:19 80.9 °F 63.7 °F 30.01 in East 3.0 mph 7.0 mph 56% 0.00 in
13:24 81.0 °F 60.6 °F 30.01 in ENE 2.0 mph 6.0 mph 50% 0.00 in
13:29 81.3 °F 62.5 °F 30.01 in ENE 3.0 mph 7.0 mph 53% 0.00 in
13:34 81.7 °F 62.4 °F 30.00 in SE 2.0 mph 5.0 mph 52% 0.00 in
13:39 81.5 °F 61.6 °F 30.00 in NE 6.0 mph 9.0 mph 51% 0.00 in
13:44 81.3 °F 62.0 °F 30.00 in ENE 3.0 mph 9.0 mph 52% 0.00 in
13:49 81.1 °F 62.3 °F 30.00 in ENE 3.0 mph 9.0 mph 53% 0.00 in
13:54 82.3 °F 63.5 °F 30.00 in ENE 2.0 mph 8.0 mph 53% 0.00 in
13:59 81.6 °F 63.9 °F 30.00 in ENE 3.0 mph 9.0 mph 55% 0.00 in
14:04 81.9 °F 64.1 °F 30.00 in ENE 3.0 mph 9.0 mph 55% 0.00 in
14:09 81.5 °F 64.3 °F 29.99 in ENE 3.0 mph 9.0 mph 56% 0.00 in
14:14 81.9 °F 64.7 °F 29.99 in ESE 4.0 mph 8.0 mph 56% 0.00 in
14:19 82.4 °F 64.6 °F 29.99 in NE 2.0 mph 9.0 mph 55% 0.00 in
14:24 82.1 °F 64.8 °F 29.99 in NNE 2.0 mph 7.0 mph 56% 0.00 in
14:29 82.6 °F 65.8 °F 29.99 in ESE 5.0 mph 7.0 mph 57% 0.00 in
14:34 82.5 °F 64.2 °F 29.99 in SE 3.0 mph 7.0 mph 54% 0.00 in
14:39 82.4 °F 64.6 °F 29.99 in East 1.0 mph 4.0 mph 55% 0.00 in
14:44 82.5 °F 63.1 °F 29.99 in East 1.0 mph 5.0 mph 52% 0.00 in
14:49 83.0 °F 65.2 °F 29.99 in ENE 7.0 mph 8.0 mph 55% 0.00 in
14:54 82.5 °F 64.7 °F 29.99 in ENE 2.0 mph 10.0 mph 55% 0.00 in
14:59 82.4 °F 64.6 °F 29.98 in ENE 4.0 mph 10.0 mph 55% 0.00 in
15:04 82.6 °F 64.8 °F 29.98 in ENE 5.0 mph 11.0 mph 55% 0.00 in
15:09 82.3 °F 65.0 °F 29.98 in ESE 1.0 mph 7.0 mph 56% 0.00 in
15:14 81.8 °F 67.5 °F 29.98 in East 3.0 mph 8.0 mph 62% 0.00 in
15:19 82.0 °F 67.2 °F 29.98 in NE 4.0 mph 12.0 mph 61% 0.00 in
15:24 81.9 °F 67.6 °F 29.98 in ENE 2.0 mph 9.0 mph 62% 0.00 in
15:29 81.2 °F 67.9 °F 29.98 in NE 2.0 mph 6.0 mph 64% 0.00 in
15:34 82.0 °F 67.7 °F 29.98 in Calm   3.0 mph 62% 0.00 in
15:39 82.4 °F 66.6 °F 29.98 in NE 8.0 mph 10.0 mph 59% 0.00 in
15:44 82.3 °F 67.0 °F 29.98 in ENE 4.0 mph 10.0 mph 60% 0.00 in
15:49 82.5 °F 67.2 °F 29.98 in ENE 4.0 mph 10.0 mph 60% 0.00 in
15:54 82.2 °F 66.4 °F 29.98 in ENE 3.0 mph 10.0 mph 59% 0.00 in
15:59 82.5 °F 68.2 °F 29.98 in NE 7.0 mph 8.0 mph 62% 0.00 in
16:04 81.1 °F 66.8 °F 29.98 in NE 7.0 mph 9.0 mph 62% 0.00 in
16:09 79.8 °F 66.5 °F 29.98 in ENE 2.0 mph 9.0 mph 64% 0.00 in
16:14 79.6 °F 66.3 °F 29.97 in ENE 4.0 mph 9.0 mph 64% 0.00 in
16:19 80.6 °F 67.7 °F 29.97 in NE 4.0 mph 9.0 mph 65% 0.00 in
16:24 80.8 °F 66.6 °F 29.97 in ENE 7.0 mph 10.0 mph 62% 0.00 in
16:29 80.0 °F 67.2 °F 29.97 in NE 3.0 mph 12.0 mph 65% 0.00 in
16:34 80.4 °F 68.0 °F 29.97 in NE 4.0 mph 8.0 mph 66% 0.00 in
16:39 80.6 °F 67.3 °F 29.98 in ENE 5.0 mph 11.0 mph 64% 0.00 in
16:44 80.7 °F 66.9 °F 29.98 in NE 5.0 mph 11.0 mph 63% 0.00 in
16:49 80.1 °F 66.4 °F 29.98 in SE 3.0 mph 8.0 mph 63% 0.00 in
16:54 80.3 °F 67.5 °F 29.98 in ENE 1.0 mph 7.0 mph 65% 0.00 in
16:59 81.1 °F 67.8 °F 29.98 in NE 2.0 mph 7.0 mph 64% 0.00 in
17:04 80.9 °F 67.6 °F 29.98 in ENE 5.0 mph 8.0 mph 64% 0.00 in
17:09 80.0 °F 66.3 °F 29.98 in ENE 5.0 mph 12.0 mph 63% 0.00 in
17:14 79.4 °F 66.6 °F 29.98 in NE 5.0 mph 12.0 mph 65% 0.00 in
17:19 79.8 °F 67.0 °F 29.98 in ENE 4.0 mph 10.0 mph 65% 0.00 in
17:24 79.7 °F 66.9 °F 29.98 in ENE 4.0 mph 10.0 mph 65% 0.00 in
17:29 79.8 °F 66.5 °F 29.98 in ENE 5.0 mph 10.0 mph 64% 0.00 in
17:34 79.9 °F 66.2 °F 29.98 in ENE 3.0 mph 8.0 mph 63% 0.00 in
17:39 79.8 °F 66.5 °F 29.98 in ENE 2.0 mph 8.0 mph 64% 0.00 in
17:44 79.8 °F 67.0 °F 29.98 in ENE 3.0 mph 8.0 mph 65% 0.00 in
17:49 79.5 °F 66.7 °F 29.98 in ENE 7.0 mph 7.0 mph 65% 0.00 in
17:54 79.2 °F 66.9 °F 29.98 in East 5.0 mph 10.0 mph 66% 0.00 in
17:59 78.9 °F 66.6 °F 29.98 in ENE 4.0 mph 10.0 mph 66% 0.00 in
18:04 78.7 °F 66.8 °F 29.98 in NE 5.0 mph 8.0 mph 67% 0.00 in
18:09 78.5 °F 67.1 °F 29.98 in NE 3.0 mph 8.0 mph 68% 0.00 in
18:14 78.4 °F 67.0 °F 29.99 in ENE 3.0 mph 9.0 mph 68% 0.00 in
18:19 78.0 °F 67.0 °F 29.98 in ENE 4.0 mph 10.0 mph 69% 0.00 in
18:24 77.8 °F 66.8 °F 29.98 in NE 4.0 mph 10.0 mph 69% 0.00 in
18:29 77.7 °F 66.7 °F 29.98 in NE 4.0 mph 11.0 mph 69% 0.00 in
18:34 77.5 °F 66.5 °F 29.99 in NE 5.0 mph 11.0 mph 69% 0.00 in
18:39 77.4 °F 66.8 °F 29.99 in East 2.0 mph 7.0 mph 70% 0.00 in
18:44 77.1 °F 66.6 °F 29.99 in ENE 4.0 mph 8.0 mph 70% 0.00 in
18:49 76.9 °F 66.4 °F 29.99 in ENE 2.0 mph 7.0 mph 70% 0.00 in
18:54 76.7 °F 66.2 °F 29.99 in ENE 4.0 mph 8.0 mph 70% 0.00 in
18:59 76.4 °F 65.9 °F 29.99 in ENE 3.0 mph 7.0 mph 70% 0.00 in
19:04 76.2 °F 65.7 °F 29.99 in NE 5.0 mph 8.0 mph 70% 0.00 in
19:09 76.0 °F 65.5 °F 30.00 in NE 4.0 mph 8.0 mph 70% 0.00 in
19:14 75.8 °F 65.7 °F 30.00 in NE 4.0 mph 8.0 mph 71% 0.00 in
19:19 75.6 °F 65.5 °F 30.00 in ENE 3.0 mph 8.0 mph 71% 0.00 in
19:24 75.4 °F 65.3 °F 30.00 in ENE 4.0 mph 8.0 mph 71% 0.00 in
19:29 75.2 °F 65.1 °F 30.00 in ENE 4.0 mph 8.0 mph 71% 0.00 in
19:34 75.0 °F 65.4 °F 30.00 in ENE 2.0 mph 8.0 mph 72% 0.00 in
19:39 74.6 °F 65.4 °F 30.00 in NE 3.0 mph 3.0 mph 73% 0.00 in
19:44 74.3 °F 65.5 °F 30.00 in ENE 1.0 mph 5.0 mph 74% 0.00 in
19:49 74.1 °F 65.3 °F 30.00 in NE 1.0 mph 5.0 mph 74% 0.00 in
19:54 73.9 °F 65.1 °F 30.00 in Calm   5.0 mph 74% 0.00 in
19:59 73.5 °F 65.1 °F 30.01 in NE 3.0 mph 5.0 mph 75% 0.00 in
20:04 73.5 °F 65.1 °F 30.01 in NE 3.0 mph 7.0 mph 75% 0.00 in
20:09 73.4 °F 64.6 °F 30.01 in NE 3.0 mph 6.0 mph 74% 0.00 in
20:14 73.2 °F 64.8 °F 30.01 in NE 3.0 mph 6.0 mph 75% 0.00 in
20:19 73.0 °F 64.6 °F 30.01 in NE 3.0 mph 7.0 mph 75% 0.00 in
20:24 72.8 °F 64.4 °F 30.01 in ENE 2.0 mph 7.0 mph 75% 0.00 in
20:29 72.5 °F 64.1 °F 30.01 in ENE 2.0 mph 5.0 mph 75% 0.00 in
20:34 72.4 °F 64.0 °F 30.02 in ENE 2.0 mph 7.0 mph 75% 0.00 in
20:39 72.2 °F 63.8 °F 30.02 in ENE 2.0 mph 7.0 mph 75% 0.00 in
20:44 72.0 °F 63.6 °F 30.02 in ENE 3.0 mph 5.0 mph 75% 0.00 in
20:49 71.9 °F 63.5 °F 30.02 in Calm   7.0 mph 75% 0.00 in
20:54 71.7 °F 63.4 °F 30.02 in Calm   3.0 mph 75% 0.00 in
20:59 71.5 °F 63.2 °F 30.02 in East 2.0 mph 5.0 mph 75% 0.00 in
21:04 71.3 °F 62.6 °F 30.02 in East 2.0 mph 7.0 mph 74% 0.00 in
21:09 71.2 °F 62.5 °F 30.02 in ENE 4.0 mph 4.0 mph 74% 0.00 in
21:14 71.0 °F 62.3 °F 30.02 in East 2.0 mph 4.0 mph 74% 0.00 in
21:19 70.7 °F 62.4 °F 30.02 in East 1.0 mph 6.0 mph 75% 0.00 in
21:24 70.4 °F 61.7 °F 30.02 in East 1.0 mph 6.0 mph 74% 0.00 in
21:29 70.3 °F 62.0 °F 30.02 in East 1.0 mph 6.0 mph 75% 0.00 in
21:34 70.0 °F 61.7 °F 30.02 in East 1.0 mph 4.0 mph 75% 0.00 in
21:39 69.8 °F 61.5 °F 30.02 in Calm   2.0 mph 75% 0.00 in
21:44 69.5 °F 61.2 °F 30.02 in Calm   1.0 mph 75% 0.00 in
21:49 69.3 °F 61.4 °F 30.02 in Calm   1.0 mph 76% 0.00 in
21:54 69.2 °F 61.3 °F 30.02 in Calm     76% 0.00 in
21:59 69.2 °F 61.3 °F 30.02 in Calm     76% 0.00 in
22:04 68.9 °F 61.0 °F 30.02 in Calm     76% 0.00 in
22:09 68.6 °F 61.1 °F 30.02 in Calm     77% 0.00 in
22:14 68.3 °F 60.8 °F 30.02 in Calm     77% 0.00 in
22:19 67.8 °F 60.7 °F 30.02 in Calm     78% 0.00 in
22:24 67.5 °F 60.8 °F 30.02 in Calm     79% 0.00 in
22:29 67.5 °F 60.8 °F 30.02 in Calm     79% 0.00 in
22:34 67.4 °F 60.7 °F 30.02 in Calm     79% 0.00 in
22:39 67.3 °F 60.9 °F 30.02 in Calm     80% 0.00 in
22:44 67.2 °F 60.8 °F 30.02 in Calm     80% 0.00 in
22:49 67.0 °F 60.6 °F 30.02 in Calm     80% 0.00 in
22:54 66.9 °F 60.9 °F 30.02 in Calm     81% 0.00 in
22:59 66.8 °F 60.8 °F 30.02 in Calm     81% 0.00 in
23:04 66.7 °F 60.7 °F 30.02 in Calm     81% 0.00 in
23:09 66.6 °F 60.6 °F 30.02 in Calm     81% 0.00 in
23:19 66.5 °F 60.5 °F 30.02 in Calm     81% 0.00 in
23:20 66.5 °F 60.5 °F 30.02 in Calm     81% 0.00 in
23:24 66.5 °F 60.5 °F 30.02 in Calm     81% 0.00 in
23:34 66.3 °F 60.3 °F 30.02 in Calm     81% 0.00 in
23:39 66.1 °F 60.1 °F 30.02 in Calm     81% 0.00 in
23:44 66.0 °F 60.0 °F 30.02 in Calm     81% 0.00 in
23:49 65.9 °F 60.2 °F 30.02 in Calm     82% 0.00 in
23:54 65.8 °F 60.2 °F 30.01 in ENE 3.0 mph 3.0 mph 82% 0.00 in
23:59 65.8 °F 60.2 °F 30.01 in Calm   3.0 mph 82% 0.00 in
Buffalo, New York, USA
Compliments of Weather Underground - 2.5 mb